Time;durP1;ratioP1;P1;durP2;ratioP2;P2;SDS_P1;SDS_P2;PMS_P1;PMS_P2;Temp;Humidity;BMP_temperature;BMP_pressure;BME280_temperature;BME280_humidity;BME280_pressure;Samples;Min_cycle;Max_cycle;Signal;HPM_P1;HPM_P2
2022/01/31 00:00:12;;;;;;;11.20;4.47;;;;;;;3.45;84.64;100969.00;690873;28;1286;-54
2022/01/31 00:00:35;;;;;;;10.85;4.45;;;;;;;3.48;83.98;100959.63;690926;28;1152;-51
2022/01/31 00:00:56;;;;;;;10.93;4.50;;;;;;;3.53;83.88;100964.94;691516;28;1399;-55
2022/01/31 00:01:16;;;;;;;12.98;4.93;;;;;;;3.45;84.74;100963.84;690599;28;5018;-51
2022/01/31 00:01:37;;;;;;;13.85;5.43;;;;;;;3.47;84.88;100963.06;691605;28;1212;-50
2022/01/31 00:01:57;;;;;;;11.43;4.50;;;;;;;3.53;85.01;100962.34;691231;28;1153;-53
2022/01/31 00:02:18;;;;;;;11.00;4.72;;;;;;;3.44;85.78;100964.69;691223;28;1910;-51
2022/01/31 00:02:40;;;;;;;12.48;4.63;;;;;;;3.36;86.47;100954.97;691268;28;3139;-50
2022/01/31 00:03:02;;;;;;;12.63;4.93;;;;;;;3.29;85.80;100947.88;690914;28;1089;-52
2022/01/31 00:03:23;;;;;;;10.85;4.80;;;;;;;3.32;84.86;100950.56;691578;28;1500;-50
2022/01/31 00:03:43;;;;;;;12.70;4.70;;;;;;;3.35;84.55;100954.94;689912;28;2145;-52
2022/01/31 00:04:04;;;;;;;11.10;4.30;;;;;;;3.38;84.64;100950.75;688994;28;2123;-52
2022/01/31 00:04:24;;;;;;;11.60;4.57;;;;;;;3.38;85.00;100947.28;691373;28;4302;-50
2022/01/31 00:04:44;;;;;;;14.98;5.15;;;;;;;3.40;85.01;100945.63;691569;28;1123;-50
2022/01/31 00:05:05;;;;;;;12.47;5.03;;;;;;;3.30;85.64;100944.47;691842;28;1360;-49
2022/01/31 00:05:25;;;;;;;10.35;4.40;;;;;;;3.27;85.87;100949.56;691346;28;1143;-56
2022/01/31 00:05:46;;;;;;;11.40;4.40;;;;;;;3.32;84.53;100942.78;691305;28;1389;-52
2022/01/31 00:06:06;;;;;;;11.65;4.55;;;;;;;3.41;84.47;100939.63;690443;28;3102;-54
2022/01/31 00:06:27;;;;;;;12.47;4.50;;;;;;;3.37;85.82;100936.06;690681;28;3586;-50
2022/01/31 00:06:48;;;;;;;13.63;5.15;;;;;;;3.30;86.24;100941.88;690050;28;1179;-54
2022/01/31 00:07:10;;;;;;;13.50;4.55;;;;;;;3.22;86.93;100935.63;691291;28;1344;-51
2022/01/31 00:07:30;;;;;;;14.50;5.18;;;;;;;3.16;87.17;100935.44;689191;28;4684;-51
2022/01/31 00:07:51;;;;;;;14.40;5.10;;;;;;;3.10;86.78;100936.13;689746;28;1226;-50
2022/01/31 00:08:11;;;;;;;14.63;5.23;;;;;;;3.16;86.91;100930.28;690991;28;1225;-51
2022/01/31 00:08:32;;;;;;;12.10;4.60;;;;;;;3.25;86.01;100933.13;691430;28;1195;-55
2022/01/31 00:08:52;;;;;;;12.10;4.57;;;;;;;3.38;85.54;100935.25;691286;28;1244;-50
2022/01/31 00:09:15;;;;;;;13.37;4.77;;;;;;;3.31;86.10;100941.06;690877;28;1157;-51
2022/01/31 00:09:36;;;;;;;12.57;4.80;;;;;;;3.35;84.71;100936.84;690789;28;3215;-52
2022/01/31 00:09:56;;;;;;;12.15;4.78;;;;;;;3.41;84.76;100940.50;690614;28;3412;-52
2022/01/31 00:10:26;;;;;;;13.40;5.25;;;;;;;3.51;84.30;100939.03;690719;28;4374;-51
2022/01/31 00:10:48;;;;;;;11.35;4.70;;;;;;;3.39;86.08;100942.16;691481;28;1523;-55
2022/01/31 00:11:08;;;;;;;14.15;4.70;;;;;;;3.31;86.35;100935.91;691640;28;1277;-53
2022/01/31 00:11:29;;;;;;;13.00;4.43;;;;;;;3.35;85.15;100936.84;685648;28;994;-52
2022/01/31 00:12:03;;;;;;;11.63;4.70;;;;;;;3.28;86.28;100943.56;685369;28;1057;-53
2022/01/31 00:12:27;;;;;;;11.77;4.90;;;;;;;3.33;84.80;100938.53;685853;28;1167;-53
2022/01/31 00:12:54;;;;;;;12.65;4.70;;;;;;;3.22;86.69;100930.44;686612;28;1209;-50
2022/01/31 00:13:21;;;;;;;12.30;4.70;;;;;;;3.23;85.63;100933.06;685590;28;4502;-51
2022/01/31 00:13:45;;;;;;;10.68;4.65;;;;;;;3.28;84.95;100922.91;689662;28;1409;-52
2022/01/31 00:14:14;;;;;;;11.77;4.70;;;;;;;3.24;85.01;100918.47;689567;28;1184;-51
2022/01/31 00:15:01;;;;;;;14.50;4.87;;;;;;;3.11;85.94;100916.34;690210;28;1337;-52
2022/01/31 00:15:22;;;;;;;11.38;4.57;;;;;;;3.15;86.83;100913.03;689523;28;1131;-50
2022/01/31 00:15:46;;;;;;;11.47;5.00;;;;;;;3.21;85.82;100914.09;691874;28;1278;-52
2022/01/31 00:16:09;;;;;;;11.00;4.50;;;;;;;3.22;85.22;100914.94;691434;28;1060;-52
2022/01/31 00:16:32;;;;;;;11.80;4.50;;;;;;;3.18;85.52;100906.22;691608;28;4306;-53
2022/01/31 00:16:53;;;;;;;12.90;4.95;;;;;;;3.27;84.59;100902.16;691919;28;3587;-53
2022/01/31 00:17:14;;;;;;;14.00;5.00;;;;;;;3.28;85.22;100899.66;689907;28;2375;-51
2022/01/31 00:17:34;;;;;;;11.90;4.93;;;;;;;3.27;86.53;100902.16;694115;28;1401;-53
2022/01/31 00:17:55;;;;;;;12.10;4.60;;;;;;;3.28;86.70;100904.81;694074;28;1445;-54
2022/01/31 00:18:15;;;;;;;14.38;4.65;;;;;;;3.28;85.41;100889.31;691229;28;1524;-54
2022/01/31 00:18:35;;;;;;;11.87;4.77;;;;;;;3.36;84.47;100890.38;693227;28;1243;-55
2022/01/31 00:18:56;;;;;;;11.57;4.70;;;;;;;3.32;84.79;100883.38;693497;28;1282;-58
2022/01/31 00:19:18;;;;;;;13.02;4.82;;;;;;;3.35;84.50;100883.47;691664;28;4410;-54
2022/01/31 00:19:41;;;;;;;12.05;4.57;;;;;;;3.36;84.46;100882.63;688578;28;1530;-53
2022/01/31 00:20:03;;;;;;;13.45;4.45;;;;;;;3.28;85.78;100878.97;689944;28;3206;-54
2022/01/31 00:20:27;;;;;;;11.35;4.78;;;;;;;3.23;85.14;100880.53;690673;28;3623;-54
2022/01/31 00:20:58;;;;;;;10.55;4.40;;;;;;;3.28;85.39;100878.97;691134;28;1428;-54
2022/01/31 00:21:18;;;;;;;9.80;4.50;;;;;;;3.24;85.18;100871.97;690245;28;1355;-52
2022/01/31 00:21:38;;;;;;;12.02;4.72;;;;;;;3.23;85.56;100871.06;692355;28;1444;-51
2022/01/31 00:21:59;;;;;;;11.87;4.73;;;;;;;3.36;84.70;100867.09;692234;28;1450;-54
2022/01/31 00:22:20;;;;;;;11.90;4.90;;;;;;;3.30;85.05;100866.94;693063;28;4441;-51
2022/01/31 00:22:40;;;;;;;13.27;4.67;;;;;;;3.26;85.91;100857.38;692220;28;1425;-52
2022/01/31 00:23:00;;;;;;;11.63;4.60;;;;;;;3.26;86.96;100859.94;691668;28;1401;-55
2022/01/31 00:23:22;;;;;;;11.03;4.57;;;;;;;3.20;87.19;100859.78;691999;28;1290;-51
2022/01/31 00:23:42;;;;;;;12.45;4.80;;;;;;;3.21;86.43;100857.25;687871;28;3696;-54
2022/01/31 00:24:02;;;;;;;12.90;4.50;;;;;;;3.22;85.72;100865.84;689362;28;1234;-51
2022/01/31 00:24:23;;;;;;;11.25;4.45;;;;;;;3.25;85.83;100858.19;688850;28;1490;-51
2022/01/31 00:24:43;;;;;;;12.07;4.63;;;;;;;3.28;86.46;100858.31;691181;28;1542;-51
2022/01/31 00:25:04;;;;;;;11.52;4.72;;;;;;;3.23;84.99;100857.28;691581;28;1317;-53
2022/01/31 00:25:24;;;;;;;11.65;4.60;;;;;;;3.26;85.43;100857.38;691399;28;4354;-51
2022/01/31 00:25:45;;;;;;;10.60;4.23;;;;;;;3.34;84.42;100855.88;692141;28;1322;-51
2022/01/31 00:26:05;;;;;;;10.97;4.20;;;;;;;3.32;84.82;100862.69;694234;28;1314;-54
2022/01/31 00:26:25;;;;;;;13.87;4.40;;;;;;;3.26;85.01;100854.78;694931;28;1349;-50
2022/01/31 00:26:52;;;;;;;11.73;4.60;;;;;;;3.16;85.23;100860.53;694990;28;1096;-51
2022/01/31 00:27:13;;;;;;;11.70;4.15;;;;;;;3.22;85.22;100852.94;693589;28;3139;-51
2022/01/31 00:27:33;;;;;;;12.35;5.15;;;;;;;3.23;85.42;100849.53;693290;28;1436;-52
2022/01/31 00:27:54;;;;;;;11.47;4.93;;;;;;;3.19;85.34;100856.31;690402;28;1677;-51
2022/01/31 00:28:15;;;;;;;11.38;4.32;;;;;;;3.13;86.04;100856.16;688384;28;4280;-54
2022/01/31 00:28:35;;;;;;;12.50;4.55;;;;;;;3.10;86.56;100847.44;685509;28;1529;-52
2022/01/31 00:28:55;;;;;;;11.63;4.43;;;;;;;3.04;86.67;100853.28;684188;28;1285;-51
2022/01/31 00:29:17;;;;;;;10.13;4.23;;;;;;;2.94;88.09;100844.41;682590;28;1209;-52
2022/01/31 00:29:37;;;;;;;11.70;4.50;;;;;;;2.99;87.17;100853.16;683776;28;1126;-53
2022/01/31 00:29:57;;;;;;;11.35;4.70;;;;;;;2.97;86.84;100854.81;682220;28;1596;-52
2022/01/31 00:30:18;;;;;;;9.40;4.50;;;;;;;3.10;86.58;100847.44;683985;28;1370;-51
2022/01/31 00:30:38;;;;;;;12.45;4.35;;;;;;;3.11;86.82;100855.22;683972;28;3201;-51
2022/01/31 00:30:59;;;;;;;11.27;4.27;;;;;;;3.12;86.69;100846.63;684830;28;2561;-50
2022/01/31 00:31:19;;;;;;;13.15;4.47;;;;;;;3.09;87.44;100853.41;686980;28;4656;-55
2022/01/31 00:31:42;;;;;;;12.53;4.33;;;;;;;3.04;87.15;100843.81;688808;28;1263;-52
2022/01/31 00:32:03;;;;;;;12.07;4.20;;;;;;;3.09;85.62;100854.31;687948;28;1150;-53
2022/01/31 00:32:29;;;;;;;11.77;4.25;;;;;;;3.03;87.06;100851.53;687247;28;1327;-50
2022/01/31 00:32:50;;;;;;;12.80;4.70;;;;;;;3.05;86.87;100855.06;688827;28;1338;-51
2022/01/31 00:33:10;;;;;;;12.93;4.90;;;;;;;3.01;86.06;100848.91;689491;28;1153;-53
2022/01/31 00:33:31;;;;;;;12.93;4.93;;;;;;;2.97;86.67;100853.94;690267;28;1088;-53
2022/01/31 00:33:51;;;;;;;12.73;4.57;;;;;;;2.93;87.97;100860.72;690773;28;1132;-50
2022/01/31 00:34:12;;;;;;;10.95;4.45;;;;;;;2.86;88.54;100856.22;690339;28;3339;-52
2022/01/31 00:34:32;;;;;;;10.87;4.87;;;;;;;2.90;87.92;100861.50;691216;28;4468;-51
2022/01/31 00:34:53;;;;;;;10.70;4.65;;;;;;;2.87;88.19;100855.38;691044;28;1302;-52
2022/01/31 00:35:14;;;;;;;11.70;4.60;;;;;;;2.84;88.71;100856.16;689305;28;1148;-52
2022/01/31 00:35:36;;;;;;;12.73;4.47;;;;;;;2.81;88.32;100861.25;686887;28;1307;-51
2022/01/31 00:35:56;;;;;;;14.25;4.80;;;;;;;2.89;88.27;100856.28;686420;28;1311;-52
2022/01/31 00:36:16;;;;;;;10.53;4.70;;;;;;;2.82;87.80;100847.47;686584;28;1135;-52
2022/01/31 00:36:37;;;;;;;10.37;4.40;;;;;;;2.96;86.83;100849.59;682254;28;1269;-50
2022/01/31 00:36:57;;;;;;;13.35;4.32;;;;;;;3.12;86.13;100854.38;682055;28;1400;-55
2022/01/31 00:37:18;;;;;;;11.95;4.40;;;;;;;3.21;86.03;100843.44;685855;28;4410;-51
2022/01/31 00:37:38;;;;;;;13.60;4.70;;;;;;;3.17;85.84;100844.19;690449;28;1858;-52
2022/01/31 00:37:58;;;;;;;13.80;4.50;;;;;;;3.13;86.77;100842.34;690821;28;3770;-51
2022/01/31 00:38:19;;;;;;;12.47;4.50;;;;;;;3.05;86.45;100842.13;691685;28;1567;-54
2022/01/31 00:38:39;;;;;;;11.87;4.37;;;;;;;3.01;86.85;100837.72;691056;28;1426;-52
2022/01/31 00:39:00;;;;;;;11.57;4.72;;;;;;;2.96;88.31;100834.97;689045;28;1393;-51
2022/01/31 00:39:22;;;;;;;13.40;4.60;;;;;;;2.95;87.13;100838.41;689461;28;3880;-51
2022/01/31 00:39:42;;;;;;;11.35;4.35;;;;;;;2.93;87.64;100840.06;685304;28;1339;-50
2022/01/31 00:40:06;;;;;;;12.77;4.90;;;;;;;2.97;86.90;100831.56;686313;28;1181;-51
2022/01/31 00:40:26;;;;;;;11.38;4.43;;;;;;;2.99;87.41;100836.78;679398;28;4486;-54
2022/01/31 00:40:47;;;;;;;11.37;4.13;;;;;;;2.96;88.10;100831.53;691076;28;1259;-52
2022/01/31 00:41:07;;;;;;;11.13;4.40;;;;;;;2.92;88.19;100838.31;691600;28;3116;-51
2022/01/31 00:41:27;;;;;;;12.20;4.47;;;;;;;3.03;87.00;100828.28;692452;28;3776;-51
2022/01/31 00:41:48;;;;;;;12.07;4.40;;;;;;;3.13;85.78;100826.84;694044;28;1426;-52
2022/01/31 00:42:08;;;;;;;12.17;4.37;;;;;;;3.08;86.63;100828.44;690765;28;1516;-52
2022/01/31 00:42:30;;;;;;;10.90;4.47;;;;;;;3.03;87.48;100820.53;688576;28;1973;-54
2022/01/31 00:42:51;;;;;;;13.98;4.65;;;;;;;2.99;86.52;100819.59;687018;28;1382;-52
2022/01/31 00:43:13;;;;;;;14.20;4.65;;;;;;;3.11;86.20;100823.34;687353;28;4732;-55
2022/01/31 00:43:36;;;;;;;12.07;4.72;;;;;;;3.10;87.15;100816.44;682972;28;1245;-54
2022/01/31 00:44:01;;;;;;;11.02;4.40;;;;;;;3.19;85.98;100811.53;685176;28;1336;-51
2022/01/31 00:44:27;;;;;;;19.98;5.75;;;;;;;3.18;86.21;100814.94;687066;28;1228;-51
2022/01/31 00:44:53;;;;;;;10.43;4.10;;;;;;;3.27;84.88;100809.13;691015;28;3361;-51
2022/01/31 00:45:23;;;;;;;10.00;4.15;;;;;;;3.33;84.54;100805.00;688408;28;1079;-52
2022/01/31 00:45:57;;;;;;;12.85;4.47;;;;;;;3.33;84.81;100804.16;688154;28;789;-53
2022/01/31 00:46:23;;;;;;;11.77;4.25;;;;;;;3.27;85.35;100804.88;688623;28;4439;-52
2022/01/31 00:47:15;;;;;;;11.25;4.43;;;;;;;3.18;85.77;100804.59;689250;28;908;-50
2022/01/31 00:47:32;;;;;;;14.43;4.35;;;;;;;3.14;85.96;100797.59;692666;28;3439;-53
2022/01/31 00:48:04;;;;;;;12.13;4.25;;;;;;;3.11;86.68;100807.84;693008;28;1515;-52
2022/01/31 00:48:26;;;;;;;10.50;4.28;;;;;;;2.95;87.32;100802.25;692894;28;1333;-50
2022/01/31 00:48:49;;;;;;;9.90;4.55;;;;;;;3.02;86.43;100806.75;692218;28;1223;-51
2022/01/31 00:49:16;;;;;;;10.00;4.20;;;;;;;3.12;86.13;100801.84;692775;28;1010;-52
2022/01/31 00:49:38;;;;;;;11.50;4.68;;;;;;;3.04;88.00;100802.50;689701;28;5217;-52
2022/01/31 00:50:25;;;;;;;15.00;4.70;;;;;;;2.90;87.48;100798.66;688203;28;1192;-51
2022/01/31 00:50:47;;;;;;;10.63;4.40;;;;;;;2.84;88.61;100795.91;688934;28;1208;-53
2022/01/31 00:51:09;;;;;;;10.90;4.43;;;;;;;2.79;88.49;100800.06;687724;28;3726;-52
2022/01/31 00:51:29;;;;;;;12.18;4.47;;;;;;;2.77;88.64;100800.03;686235;28;1314;-51
2022/01/31 00:51:49;;;;;;;12.73;4.32;;;;;;;2.90;87.51;100798.66;683633;28;1330;-53
2022/01/31 00:52:10;;;;;;;11.03;4.47;;;;;;;2.88;87.83;100795.13;684524;28;1380;-51
2022/01/31 00:52:30;;;;;;;10.32;4.57;;;;;;;2.95;88.46;100791.94;687722;28;4373;-55
2022/01/31 00:52:51;;;;;;;12.33;4.57;;;;;;;2.99;87.92;100788.59;684548;28;1181;-52
2022/01/31 00:53:11;;;;;;;12.25;4.25;;;;;;;3.08;86.31;100800.03;686753;28;1017;-52
2022/01/31 00:53:32;;;;;;;12.13;4.30;;;;;;;3.06;86.87;100785.34;687032;28;979;-53
2022/01/31 00:53:53;;;;;;;11.63;4.63;;;;;;;3.01;87.92;100786.91;686187;28;1196;-50
2022/01/31 00:54:13;;;;;;;12.52;4.75;;;;;;;2.94;87.92;100787.59;686622;28;1019;-50
2022/01/31 00:54:34;;;;;;;12.83;4.73;;;;;;;2.88;88.23;100787.41;686793;28;3568;-54
2022/01/31 00:54:54;;;;;;;12.07;4.47;;;;;;;2.84;88.15;100788.16;689101;28;1107;-51
2022/01/31 00:55:14;;;;;;;11.97;4.60;;;;;;;2.87;88.82;100783.09;688186;28;4752;-52
2022/01/31 00:55:35;;;;;;;12.15;4.80;;;;;;;2.93;88.41;100782.38;688801;28;1177;-55
2022/01/31 00:55:55;;;;;;;11.35;4.38;;;;;;;2.89;87.89;100778.81;688514;28;868;-53
2022/01/31 00:56:16;;;;;;;11.83;4.47;;;;;;;2.85;88.06;100779.56;687594;28;1185;-52
2022/01/31 00:56:36;;;;;;;14.53;4.93;;;;;;;2.82;88.25;100775.19;687823;28;861;-52
2022/01/31 00:56:57;;;;;;;13.20;4.53;;;;;;;2.99;86.84;100773.09;690421;28;937;-52
2022/01/31 00:57:17;;;;;;;10.20;4.30;;;;;;;3.03;87.53;100774.94;687362;28;1428;-52
2022/01/31 00:57:38;;;;;;;11.35;4.30;;;;;;;3.11;86.57;100776.84;687112;28;1013;-51
2022/01/31 00:57:58;;;;;;;12.15;4.50;;;;;;;3.13;87.24;100770.00;689074;28;3131;-55
2022/01/31 00:58:18;;;;;;;11.00;4.50;;;;;;;3.06;87.55;100777.59;688479;28;4471;-51
2022/01/31 00:58:39;;;;;;;11.25;4.85;;;;;;;3.03;87.45;100774.03;686348;28;1481;-54
2022/01/31 00:58:59;;;;;;;11.77;5.07;;;;;;;2.99;87.30;100773.09;683099;28;1477;-54
2022/01/31 00:59:20;;;;;;;13.98;4.50;;;;;;;2.96;88.76;100779.88;684344;28;1105;-51
2022/01/31 00:59:40;;;;;;;12.93;4.57;;;;;;;2.94;87.85;100779.84;684857;28;1190;-52
2022/01/31 01:00:03;;;;;;;13.17;4.60;;;;;;;3.03;86.67;100785.28;686587;28;1601;-50
2022/01/31 01:00:23;;;;;;;12.14;4.52;;;;;;;3.04;86.76;100775.81;685647;28;1738;-53
2022/01/31 01:00:44;;;;;;;12.67;4.67;;;;;;;3.09;86.71;100783.66;684601;28;1507;-51
2022/01/31 01:01:06;;;;;;;11.63;4.83;;;;;;;3.05;87.00;100787.91;683404;28;1243;-51
2022/01/31 01:01:27;;;;;;;11.90;4.57;;;;;;;3.01;87.14;100786.06;682177;28;4398;-51
2022/01/31 01:01:48;;;;;;;13.87;4.80;;;;;;;2.95;87.64;100785.88;686290;28;2704;-52
2022/01/31 01:02:08;;;;;;;14.00;5.13;;;;;;;2.95;87.81;100789.34;686623;28;921;-52
2022/01/31 01:02:30;;;;;;;13.97;4.60;;;;;;;2.94;87.59;100786.72;686291;28;1982;-52
2022/01/31 01:02:50;;;;;;;12.43;4.82;;;;;;;2.95;87.01;100784.19;685920;28;1267;-53
2022/01/31 01:03:11;;;;;;;12.48;4.30;;;;;;;2.93;88.12;100785.81;687735;28;1451;-52
2022/01/31 01:03:31;;;;;;;12.60;4.27;;;;;;;2.88;88.46;100782.22;685606;28;1342;-51
2022/01/31 01:03:53;;;;;;;11.75;4.47;;;;;;;2.82;88.79;100770.03;686133;28;1482;-55
2022/01/31 01:04:14;;;;;;;11.97;4.70;;;;;;;2.94;88.18;100774.69;685119;28;4410;-52
2022/01/31 01:04:36;;;;;;;13.52;4.75;;;;;;;3.14;86.74;100774.34;684704;28;1502;-52
2022/01/31 01:04:56;;;;;;;12.13;4.35;;;;;;;3.12;87.87;100773.44;686401;28;2349;-52
2022/01/31 01:05:17;;;;;;;9.75;4.40;;;;;;;3.06;86.98;100775.03;683338;28;3364;-52
2022/01/31 01:05:38;;;;;;;10.90;4.23;;;;;;;3.02;86.62;100773.19;681878;28;1365;-52
2022/01/31 01:05:58;;;;;;;11.05;3.90;;;;;;;3.02;86.52;100767.16;681040;28;1233;-51
2022/01/31 01:06:19;;;;;;;12.70;4.43;;;;;;;3.00;87.17;100768.81;683020;28;1369;-51
2022/01/31 01:06:39;;;;;;;14.43;4.75;;;;;;;2.96;88.15;100765.25;684683;28;1032;-53
2022/01/31 01:07:00;;;;;;;13.27;4.67;;;;;;;2.94;88.26;100764.34;687434;28;989;-56
2022/01/31 01:07:20;;;;;;;12.52;4.47;;;;;;;2.98;87.15;100761.00;686189;28;4565;-53
2022/01/31 01:07:46;;;;;;;11.68;4.25;;;;;;;3.09;86.88;100757.84;684248;28;2231;-52
2022/01/31 01:08:06;;;;;;;13.20;4.63;;;;;;;3.06;87.73;100754.34;688219;28;3704;-54
2022/01/31 01:08:26;;;;;;;10.83;4.50;;;;;;;2.99;88.37;100752.44;689509;28;1716;-52
2022/01/31 01:08:48;;;;;;;10.90;4.22;;;;;;;3.00;88.08;100749.00;687027;28;1592;-51
2022/01/31 01:09:11;;;;;;;12.23;4.65;;;;;;;2.98;88.53;100745.53;684819;28;1566;-51
2022/01/31 01:09:31;;;;;;;11.13;4.40;;;;;;;2.98;88.14;100742.06;684812;28;999;-52
2022/01/31 01:09:52;;;;;;;13.77;4.78;;;;;;;2.96;87.37;100751.47;687746;28;926;-55
2022/01/31 01:10:15;;;;;;;14.60;5.20;;;;;;;2.93;87.91;100744.50;686401;28;4384;-52
2022/01/31 01:10:36;;;;;;;11.95;4.68;;;;;;;2.92;88.30;100747.91;686609;28;1100;-51
2022/01/31 01:10:56;;;;;;;10.80;4.32;;;;;;;2.97;87.46;100748.06;688944;28;1379;-51
2022/01/31 01:11:17;;;;;;;10.95;4.45;;;;;;;2.91;88.03;100738.44;688937;28;1817;-53
2022/01/31 01:11:38;;;;;;;10.93;4.30;;;;;;;2.96;87.86;100736.84;689123;28;3735;-50
2022/01/31 01:11:58;;;;;;;9.90;4.10;;;;;;;2.93;87.45;100736.75;685903;28;1402;-53
2022/01/31 01:12:19;;;;;;;11.43;4.57;;;;;;;2.98;87.25;100730.03;688430;28;1206;-55
2022/01/31 01:12:39;;;;;;;13.47;4.90;;;;;;;3.01;87.41;100735.25;689363;28;1399;-51
2022/01/31 01:13:00;;;;;;;11.23;4.22;;;;;;;3.11;86.76;100735.53;684733;28;1430;-53
2022/01/31 01:13:21;;;;;;;10.47;4.30;;;;;;;3.12;87.04;100732.97;686708;28;5345;-53
2022/01/31 01:13:41;;;;;;;12.43;4.47;;;;;;;3.18;86.68;100732.25;686921;28;1912;-51
2022/01/31 01:14:02;;;;;;;11.43;4.17;;;;;;;3.23;86.55;100725.50;684104;28;1566;-53
2022/01/31 01:14:22;;;;;;;11.45;4.55;;;;;;;3.24;86.30;100727.28;684444;28;1589;-50
2022/01/31 01:14:44;;;;;;;10.50;4.43;;;;;;;3.34;85.82;100720.63;686687;28;2211;-50
2022/01/31 01:15:05;;;;;;;12.05;4.25;;;;;;;3.32;85.54;100717.13;684894;28;3524;-54
2022/01/31 01:15:25;;;;;;;13.48;4.88;;;;;;;3.30;85.72;100717.09;687433;28;1444;-50
2022/01/31 01:15:46;;;;;;;16.33;4.80;;;;;;;3.22;86.19;100713.44;688611;28;1183;-52
2022/01/31 01:16:06;;;;;;;11.57;4.27;;;;;;;3.16;86.61;100710.69;690529;28;1169;-53
2022/01/31 01:16:27;;;;;;;11.40;4.18;;;;;;;3.10;86.81;100708.78;691912;28;5446;-55
2022/01/31 01:16:47;;;;;;;13.30;4.40;;;;;;;3.03;86.92;100705.19;689602;28;1227;-52
2022/01/31 01:17:08;;;;;;;12.77;4.50;;;;;;;3.13;86.96;100702.84;686005;28;2640;-52
2022/01/31 01:17:29;;;;;;;14.60;4.97;;;;;;;3.14;87.27;100699.44;686391;28;1741;-51
2022/01/31 01:17:49;;;;;;;12.53;4.30;;;;;;;3.20;87.41;100691.84;686696;28;1283;-53
2022/01/31 01:18:10;;;;;;;10.93;4.10;;;;;;;3.14;87.19;100687.38;683339;28;1294;-52
2022/01/31 01:18:30;;;;;;;11.20;4.00;;;;;;;3.06;87.77;100694.94;683007;28;3572;-51
2022/01/31 01:18:51;;;;;;;9.83;4.10;;;;;;;3.01;88.24;100691.34;686685;28;1533;-52
2022/01/31 01:19:11;;;;;;;11.48;4.22;;;;;;;2.96;89.02;100692.94;686170;28;1250;-52
2022/01/31 01:19:32;;;;;;;11.27;4.40;;;;;;;3.03;87.75;100687.13;686067;28;5593;-51
2022/01/31 01:19:54;;;;;;;11.85;4.30;;;;;;;2.98;88.40;100690.41;684390;28;1323;-54
2022/01/31 01:20:17;;;;;;;12.73;4.22;;;;;;;2.99;88.03;100689.56;684829;28;1192;-56
2022/01/31 01:20:38;;;;;;;12.25;4.40;;;;;;;2.96;88.21;100690.34;685012;28;1247;-52
2022/01/31 01:20:58;;;;;;;11.03;4.20;;;;;;;2.94;88.60;100684.28;686325;28;1145;-53
2022/01/31 01:21:19;;;;;;;10.32;4.40;;;;;;;2.98;87.87;100691.28;686405;28;1244;-50
2022/01/31 01:21:39;;;;;;;10.60;4.13;;;;;;;2.97;87.84;100686.94;687475;28;797;-55
2022/01/31 01:22:00;;;;;;;12.13;4.43;;;;;;;3.09;86.79;100693.25;689228;28;3621;-54
2022/01/31 01:22:21;;;;;;;11.35;4.03;;;;;;;3.22;86.69;100693.63;693740;28;5397;-52
2022/01/31 01:22:42;;;;;;;12.53;4.47;;;;;;;3.15;87.32;100688.28;694928;28;1406;-55
2022/01/31 01:23:03;;;;;;;12.50;4.55;;;;;;;3.08;88.04;100688.94;694196;28;1144;-55
2022/01/31 01:23:23;;;;;;;10.75;4.32;;;;;;;3.15;87.50;100680.53;692420;28;1444;-53
2022/01/31 01:23:44;;;;;;;12.30;4.30;;;;;;;3.18;86.91;100680.59;689119;28;1251;-51
2022/01/31 01:24:05;;;;;;;13.00;4.43;;;;;;;3.14;87.40;100683.94;689079;28;1007;-51
2022/01/31 01:24:25;;;;;;;13.13;4.55;;;;;;;3.14;87.25;100676.19;686358;28;1226;-50
2022/01/31 01:24:48;;;;;;;11.97;4.40;;;;;;;3.14;87.41;100678.75;686527;28;1144;-51
2022/01/31 01:25:09;;;;;;;14.30;4.75;;;;;;;3.07;88.53;100680.31;683902;28;1207;-55
2022/01/31 01:25:32;;;;;;;12.55;4.50;;;;;;;3.00;88.27;100676.69;685190;28;4653;-51
2022/01/31 01:25:52;;;;;;;12.10;4.40;;;;;;;2.98;88.13;100672.34;678636;29;1186;-53
2022/01/31 01:26:13;;;;;;;11.88;4.32;;;;;;;2.94;88.53;100675.69;680334;28;1147;-55
2022/01/31 01:26:34;;;;;;;11.60;4.47;;;;;;;2.93;88.38;100668.75;680987;28;1578;-50
2022/01/31 01:26:57;;;;;;;12.98;4.78;;;;;;;3.00;88.02;100668.94;683204;28;1386;-51
2022/01/31 01:27:20;;;;;;;10.65;4.40;;;;;;;3.05;87.72;100672.53;683914;28;1303;-53
2022/01/31 01:27:43;;;;;;;12.15;4.20;;;;;;;3.10;87.11;100670.06;686635;28;1247;-51
2022/01/31 01:28:04;;;;;;;11.88;4.05;;;;;;;3.09;88.31;100670.00;684573;28;1250;-52
2022/01/31 01:28:26;;;;;;;12.18;4.43;;;;;;;3.04;87.98;100659.56;685652;28;4547;-52
2022/01/31 01:28:46;;;;;;;12.55;4.38;;;;;;;3.10;87.36;100666.59;685684;28;1856;-54
2022/01/31 01:29:07;;;;;;;9.65;3.83;;;;;;;3.20;87.07;100658.28;686589;28;2062;-54
2022/01/31 01:29:28;;;;;;;12.90;4.22;;;;;;;3.24;86.87;100657.50;686975;28;1351;-53
2022/01/31 01:29:48;;;;;;;11.33;4.33;;;;;;;3.33;86.00;100654.28;686752;28;1405;-54
2022/01/31 01:30:13;;;;;;;12.52;4.95;;;;;;;3.25;86.88;100659.25;685775;28;1458;-53
2022/01/31 01:30:34;;;;;;;11.48;4.13;;;;;;;3.22;86.87;100654.00;686466;28;1113;-54
2022/01/31 01:30:55;;;;;;;12.83;4.33;;;;;;;3.14;87.20;100652.94;687384;28;1447;-52
2022/01/31 01:31:16;;;;;;;10.82;4.68;;;;;;;3.19;86.98;100653.94;688221;28;4311;-52
2022/01/31 01:31:37;;;;;;;11.43;4.50;;;;;;;3.15;86.80;100654.69;689229;28;1255;-52
2022/01/31 01:31:57;;;;;;;13.23;4.57;;;;;;;3.09;87.78;100645.06;685741;28;1229;-52
2022/01/31 01:32:25;;;;;;;11.02;4.50;;;;;;;3.01;88.11;100637.13;685845;28;3524;-52
2022/01/31 01:33:11;;;;;;;12.60;4.63;;;;;;;3.03;87.70;100639.75;685983;28;1444;-54
2022/01/31 01:33:27;;;;;;;12.70;4.60;;;;;;;3.00;89.03;100640.53;689624;28;1621;-53
2022/01/31 01:33:48;;;;;;;11.32;4.22;;;;;;;2.96;88.94;100643.00;688806;28;1445;-54
2022/01/31 01:34:09;;;;;;;9.90;4.40;;;;;;;2.94;89.23;100634.34;689084;28;1151;-54
2022/01/31 01:34:32;;;;;;;11.52;4.22;;;;;;;2.94;88.62;100632.63;686115;28;4435;-53
2022/01/31 01:34:54;;;;;;;14.18;4.55;;;;;;;2.89;89.30;100632.53;687816;28;1307;-52
2022/01/31 01:35:15;;;;;;;11.85;4.38;;;;;;;3.01;88.39;100628.50;686225;28;1405;-53
2022/01/31 01:35:38;;;;;;;11.20;4.22;;;;;;;3.15;87.37;100623.69;686915;28;1391;-53
2022/01/31 01:35:58;;;;;;;9.40;4.03;;;;;;;3.21;87.58;100623.81;682150;28;3575;-53
2022/01/31 01:36:20;;;;;;;9.13;3.83;;;;;;;3.18;86.41;100626.34;683547;28;1390;-51
2022/01/31 01:36:44;;;;;;;10.88;4.00;;;;;;;3.17;87.33;100622.91;684020;28;1273;-54
2022/01/31 01:37:04;;;;;;;12.25;4.22;;;;;;;3.29;86.55;100619.72;683192;28;1431;-51
2022/01/31 01:37:26;;;;;;;12.10;4.07;;;;;;;3.29;86.13;100621.44;681049;28;4733;-55
2022/01/31 01:37:47;;;;;;;13.77;4.60;;;;;;;3.25;86.84;100617.91;683207;28;1232;-51
2022/01/31 01:38:07;;;;;;;11.13;4.50;;;;;;;3.28;86.62;100618.00;684624;28;1153;-51
2022/01/31 01:38:30;;;;;;;10.23;3.92;;;;;;;3.26;86.88;100616.22;684012;28;1705;-53
2022/01/31 01:38:51;;;;;;;11.50;4.22;;;;;;;3.22;86.47;100607.50;682889;28;1256;-53
2022/01/31 01:39:12;;;;;;;11.00;4.05;;;;;;;3.21;86.62;100614.38;680999;28;3272;-55
2022/01/31 01:39:33;;;;;;;10.63;3.90;;;;;;;3.17;86.69;100606.50;677353;29;3743;-51
2022/01/31 01:39:54;;;;;;;10.38;4.00;;;;;;;3.18;86.51;100603.94;678418;29;989;-51
2022/01/31 01:40:14;;;;;;;13.97;4.60;;;;;;;3.20;87.97;100596.28;678085;28;4453;-51
2022/01/31 01:40:38;;;;;;;11.73;4.35;;;;;;;3.15;87.43;100587.53;680741;28;1310;-54
2022/01/31 01:40:59;;;;;;;10.25;4.47;;;;;;;3.12;87.88;100595.22;681238;28;1352;-52
2022/01/31 01:41:20;;;;;;;11.73;4.50;;;;;;;3.11;88.31;100588.28;685653;28;1268;-51
2022/01/31 01:41:40;;;;;;;10.00;4.07;;;;;;;3.08;88.20;100583.91;689051;28;970;-54
2022/01/31 01:42:02;;;;;;;8.70;3.90;;;;;;;3.16;87.23;100579.81;686586;28;1483;-51
2022/01/31 01:42:22;;;;;;;10.85;4.10;;;;;;;3.14;87.60;100589.22;685903;28;1972;-52
2022/01/31 01:42:43;;;;;;;11.35;4.28;;;;;;;3.10;88.19;100589.97;686890;28;3451;-55
2022/01/31 01:43:04;;;;;;;11.98;4.43;;;;;;;3.12;88.33;100584.88;686042;28;3467;-53
2022/01/31 01:43:26;;;;;;;12.95;4.47;;;;;;;3.06;89.08;100583.03;682850;28;4424;-52
2022/01/31 01:43:47;;;;;;;10.23;4.15;;;;;;;3.01;89.16;100580.31;684557;28;1064;-54